Main page
METAR-TAF:

METAR-TAF

Airports :

Indianapolis Regional Airport

Indianapolis, Indiana, United States

latitude: 39-50-37N, longitude: 085-53-49W, elevation: 863 ft

Current weather observation

The report was made 13 minutes ago, at 10:55 UTC
Wind 8 mph from the South
Temperature 30°F
Humidity 74%
Pressure 30.12 in. Hg
Visibility: 10 miles
Clear sky

METAR: KMQJ 231055Z AUTO 17007KT 10SM CLR M01/M05 A3012 RMK AO1

Time: 04:08 (11:08 UTC)


TAF: missing

Weather observations and forecasts of more than 4000 airports (METAR and TAF reports).

The available stations are represented by yellow and red dots on the map.

Hover mouse over dot to see the name of the station.

Then click to see weather observations and forecasts.

To change the map : click on the green buttons with a black cross to zoom in, on the green button with a dash to zoom out, or on the green arrows for adjacent maps.


METAR-TAF: